Time;durP1;ratioP1;P1;durP2;ratioP2;P2;SDS_P1;SDS_P2;PMS_P1;PMS_P2;Temp;Humidity;BMP_temperature;BMP_pressure;BME280_temperature;BME280_humidity;BME280_pressure;Samples;Min_cycle;Max_cycle;Signal;HPM_P1;HPM_P2
2022/12/18 00:39:10;;;;;;;51.28;27.38;;;11.20;99.90;;;;;;5944174;23;20020;-94
2022/12/18 00:56:43;;;;;;;42.03;26.15;;;11.10;99.90;;;;;;584474;24;20303;-91
2022/12/18 00:59:09;;;;;;;41.85;24.95;;;11.20;99.90;;;;;;4771719;30;20055;-93
2022/12/18 01:01:39;;;;;;;45.88;27.65;;;11.10;99.90;;;;;;4773242;30;20517;-93
2022/12/18 01:04:06;;;;;;;48.38;29.92;;;11.20;99.90;;;;;;4773099;30;20517;-94
2022/12/18 01:06:33;;;;;;;44.03;28.60;;;11.20;99.90;;;;;;4772808;30;20049;-92
2022/12/18 01:08:59;;;;;;;45.65;27.83;;;11.10;99.90;;;;;;4779225;29;20043;-92
2022/12/18 01:11:26;;;;;;;39.95;26.98;;;11.10;99.90;;;;;;4805781;29;20069;-94
2022/12/18 01:13:54;;;;;;;45.00;26.67;;;11.10;99.90;;;;;;4790754;29;20396;-92
2022/12/18 01:16:22;;;;;;;42.95;24.90;;;11.10;99.90;;;;;;4790825;29;20027;-92
2022/12/18 01:18:53;;;;;;;45.42;26.52;;;11.00;99.90;;;;;;4790910;29;20393;-94
2022/12/18 01:21:21;;;;;;;42.80;25.40;;;10.90;99.90;;;;;;4790736;29;20031;-93
2022/12/18 01:23:59;;;;;;;40.17;25.50;;;11.00;99.90;;;;;;4790607;29;20397;-92
2022/12/18 01:26:29;;;;;;;40.55;25.92;;;10.90;99.90;;;;;;4790789;29;20493;-93
2022/12/18 01:28:57;;;;;;;41.90;25.95;;;11.00;99.90;;;;;;4772309;30;20567;-91
2022/12/18 01:31:30;;;;;;;41.63;26.25;;;11.00;99.90;;;;;;4772040;30;20434;-91
2022/12/18 01:33:57;;;;;;;41.42;25.90;;;11.00;99.90;;;;;;4772106;30;20047;-93
2022/12/18 01:36:38;;;;;;;44.85;26.55;;;11.10;99.90;;;;;;4771860;30;20066;-91
2022/12/18 01:39:11;;;;;;;41.40;24.92;;;11.10;99.90;;;;;;4772337;30;20043;-93
2022/12/18 01:44:57;;;;;;;45.17;26.67;;;11.00;99.90;;;;;;4775371;30;20126;-92
2022/12/18 01:47:42;;;;;;;45.22;28.85;;;10.90;99.90;;;;;;4760292;30;20092;-93
2022/12/18 01:50:25;;;;;;;43.17;26.65;;;10.90;99.90;;;;;;4775205;29;20482;-92
2022/12/18 01:53:02;;;;;;;43.22;26.35;;;10.90;99.90;;;;;;4775246;30;20035;-93
2022/12/18 01:55:35;;;;;;;39.50;26.23;;;10.90;99.90;;;;;;4775038;30;20047;-92
2022/12/18 01:58:03;;;;;;;43.38;26.98;;;11.00;99.90;;;;;;4775036;30;20055;-94
2022/12/18 02:00:30;;;;;;;42.28;27.63;;;11.00;99.90;;;;;;4798928;29;20043;-92
2022/12/18 02:02:56;;;;;;;40.47;26.58;;;11.00;99.90;;;;;;4793545;29;20027;-92
2022/12/18 02:05:29;;;;;;;42.40;25.77;;;11.00;99.90;;;;;;4778496;29;20089;-94
2022/12/18 02:08:03;;;;;;;41.60;25.63;;;11.00;99.90;;;;;;4808516;29;20081;-92
2022/12/18 02:10:43;;;;;;;40.05;25.65;;;11.00;99.90;;;;;;4808592;29;20035;-91
2022/12/18 02:13:56;;;;;;;34.47;23.85;;;10.90;99.90;;;;;;4793675;29;20378;-93
2022/12/18 02:16:45;;;;;;;38.55;24.58;;;11.00;99.90;;;;;;4779099;29;20042;-91
2022/12/18 02:19:29;;;;;;;40.88;27.27;;;10.90;99.90;;;;;;4793215;29;20386;-93
2022/12/18 02:22:23;;;;;;;41.90;26.38;;;10.90;99.90;;;;;;4793081;29;20035;-92
2022/12/18 02:25:11;;;;;;;45.33;27.30;;;10.90;99.90;;;;;;4823207;29;20051;-94
2022/12/18 02:27:41;;;;;;;40.67;25.92;;;10.80;99.90;;;;;;4792739;29;20451;-91
2022/12/18 02:30:09;;;;;;;45.28;28.90;;;10.70;99.90;;;;;;4793024;29;20030;-92
2022/12/18 02:32:42;;;;;;;41.72;26.35;;;10.80;99.90;;;;;;4793085;29;20130;-93
2022/12/18 02:35:20;;;;;;;41.13;26.65;;;10.70;99.90;;;;;;4792929;29;20031;-92
2022/12/18 02:37:55;;;;;;;38.03;26.58;;;10.70;99.90;;;;;;4793577;29;20035;-92
2022/12/18 02:40:24;;;;;;;49.08;30.05;;;10.70;99.90;;;;;;4792932;29;20493;-91
2022/12/18 02:42:52;;;;;;;56.08;34.60;;;10.80;99.90;;;;;;4792872;29;20030;-92
2022/12/18 02:45:23;;;;;;;62.10;36.53;;;10.90;99.90;;;;;;4792827;29;20482;-92
2022/12/18 02:47:51;;;;;;;58.05;37.80;;;11.00;99.90;;;;;;4807890;29;20050;-94
2022/12/18 02:50:38;;;;;;;69.25;38.75;;;11.10;99.90;;;;;;4792603;29;20054;-92
2022/12/18 02:53:40;;;;;;;73.68;43.42;;;11.20;99.90;;;;;;4791456;29;20041;-93
2022/12/18 02:56:18;;;;;;;71.82;42.65;;;11.20;99.90;;;;;;4792285;29;20087;-92
2022/12/18 02:59:03;;;;;;;79.78;43.67;;;11.20;99.90;;;;;;4776641;29;20075;-94
2022/12/18 03:02:08;;;;;;;78.13;46.20;;;11.30;99.90;;;;;;4777511;29;20043;-91
2022/12/18 03:05:07;;;;;;;67.07;44.13;;;11.30;99.90;;;;;;4774016;30;20493;-91
2022/12/18 03:07:47;;;;;;;70.13;42.08;;;11.30;99.90;;;;;;4759241;30;20134;-91
2022/12/18 03:10:20;;;;;;;68.57;42.42;;;11.20;99.90;;;;;;4759010;30;20112;-93
2022/12/18 03:12:54;;;;;;;73.78;42.33;;;11.20;99.90;;;;;;4773830;30;20528;-91
2022/12/18 03:15:31;;;;;;;69.18;41.67;;;11.20;99.90;;;;;;4759019;30;20394;-93
2022/12/18 03:18:40;;;;;;;64.88;39.85;;;11.20;99.90;;;;;;4774519;30;20050;-93
2022/12/18 03:21:09;;;;;;;61.55;38.10;;;11.20;99.90;;;;;;4737996;30;20044;-92
2022/12/18 03:23:50;;;;;;;60.63;37.45;;;11.20;99.90;;;;;;4738188;30;20035;-92
2022/12/18 03:26:27;;;;;;;56.97;35.75;;;11.20;99.90;;;;;;4738178;30;20521;-92
2022/12/18 03:29:17;;;;;;;59.25;35.58;;;11.20;99.90;;;;;;4737919;30;20044;-94
2022/12/18 03:31:51;;;;;;;62.50;34.72;;;11.20;99.90;;;;;;4702997;30;20062;-93
2022/12/18 03:34:33;;;;;;;52.67;32.08;;;11.20;99.90;;;;;;4685667;30;20049;-93
2022/12/18 03:37:09;;;;;;;;;;;11.30;99.90;;;;;;4686352;30;20076;-93
2022/12/18 03:39:37;;;;;;;51.50;31.48;;;11.30;99.90;;;;;;4752555;30;20016;-94
2022/12/18 03:42:22;;;;;;;51.60;31.73;;;11.20;99.90;;;;;;4752633;30;20044;-92
2022/12/18 03:45:12;;;;;;;54.28;31.27;;;11.20;99.90;;;;;;4752322;30;20051;-92
2022/12/18 03:48:04;;;;;;;49.15;29.40;;;11.20;99.90;;;;;;4752124;30;20048;-92
2022/12/18 03:50:49;;;;;;;42.72;29.33;;;11.20;99.90;;;;;;4752793;30;20042;-92
2022/12/18 03:53:41;;;;;;;42.42;25.27;;;11.20;99.90;;;;;;4752285;30;20534;-92
2022/12/18 03:56:10;;;;;;;33.97;22.05;;;11.20;99.90;;;;;;4752227;30;20071;-92
2022/12/18 03:58:43;;;;;;;34.05;20.95;;;11.20;99.90;;;;;;4796782;29;20054;-91
2022/12/18 04:01:19;;;;;;;33.22;19.05;;;11.40;99.90;;;;;;4803534;29;20035;-92
2022/12/18 04:03:49;;;;;;;27.38;18.77;;;11.40;99.90;;;;;;4787903;30;20039;-91
2022/12/18 04:06:19;;;;;;;27.23;17.38;;;11.40;99.90;;;;;;4803254;29;20113;-93
2022/12/18 04:08:47;;;;;;;30.45;18.27;;;11.50;99.90;;;;;;4803198;29;20035;-92
2022/12/18 04:11:19;;;;;;;32.45;21.10;;;11.50;99.90;;;;;;4788197;30;20066;-92
2022/12/18 04:13:47;;;;;;;31.40;20.60;;;11.40;99.90;;;;;;4803203;29;20039;-92
2022/12/18 04:16:39;;;;;;;31.00;19.10;;;11.30;99.90;;;;;;4717102;30;20042;-93
2022/12/18 04:19:10;;;;;;;36.80;20.27;;;11.20;99.90;;;;;;4703190;30;20408;-92
2022/12/18 04:21:43;;;;;;;31.95;19.02;;;11.10;99.90;;;;;;4703127;30;20136;-93
2022/12/18 04:24:14;;;;;;;33.22;18.90;;;11.10;99.90;;;;;;4702370;30;20087;-94
2022/12/18 04:26:50;;;;;;;27.98;18.02;;;11.10;99.90;;;;;;4719282;30;20130;-91
2022/12/18 04:29:22;;;;;;;32.72;20.27;;;11.00;99.90;;;;;;4719435;30;20048;-93
2022/12/18 04:31:49;;;;;;;32.40;17.55;;;10.90;99.90;;;;;;4719651;30;20037;-92
2022/12/18 04:34:19;;;;;;;30.02;17.33;;;11.00;99.90;;;;;;4720189;30;20471;-93
2022/12/18 04:36:50;;;;;;;27.77;17.52;;;11.00;99.90;;;;;;4719728;30;20035;-93
2022/12/18 04:39:18;;;;;;;25.95;17.75;;;11.00;99.90;;;;;;4720711;30;20452;-91
2022/12/18 04:41:48;;;;;;;30.33;18.77;;;11.00;99.90;;;;;;4721316;30;20096;-92
2022/12/18 04:44:15;;;;;;;32.72;18.02;;;11.10;99.90;;;;;;4719836;30;20116;-92
2022/12/18 04:46:42;;;;;;;28.75;17.77;;;11.00;99.90;;;;;;4721234;30;20074;-91
2022/12/18 04:49:15;;;;;;;29.65;18.75;;;11.10;99.90;;;;;;4719847;30;20045;-94
2022/12/18 04:51:42;;;;;;;28.48;18.60;;;11.10;99.90;;;;;;4719530;30;20041;-93
2022/12/18 04:54:08;;;;;;;30.58;18.35;;;11.10;99.90;;;;;;4768651;30;20132;-93
2022/12/18 04:56:38;;;;;;;26.50;16.80;;;11.10;99.90;;;;;;4786243;29;20028;-91
2022/12/18 04:59:05;;;;;;;28.27;18.10;;;11.10;99.90;;;;;;4808800;29;20042;-93
2022/12/18 05:01:31;;;;;;;23.15;15.05;;;11.10;99.90;;;;;;4808994;29;20117;-91
2022/12/18 05:03:58;;;;;;;29.88;16.63;;;11.20;99.90;;;;;;4794191;29;20030;-91
2022/12/18 05:06:25;;;;;;;25.67;16.38;;;11.30;99.90;;;;;;4808571;29;20121;-93
2022/12/18 05:08:51;;;;;;;25.45;16.52;;;11.30;99.90;;;;;;4793857;29;20042;-93
2022/12/18 05:11:18;;;;;;;27.25;16.13;;;11.30;99.90;;;;;;4808934;29;20027;-91
2022/12/18 05:13:45;;;;;;;25.55;15.23;;;11.30;99.90;;;;;;4808724;29;20038;-92
2022/12/18 05:16:12;;;;;;;24.75;14.50;;;11.30;99.90;;;;;;4809791;29;20514;-92
2022/12/18 05:18:39;;;;;;;21.27;13.73;;;11.40;99.90;;;;;;4812243;29;20030;-92
2022/12/18 05:21:06;;;;;;;21.52;13.25;;;11.50;99.90;;;;;;4812092;29;20031;-92
2022/12/18 05:23:36;;;;;;;18.58;13.05;;;11.60;99.90;;;;;;4812151;29;20031;-92
2022/12/18 05:26:05;;;;;;;23.15;14.30;;;11.60;99.90;;;;;;4812060;29;20429;-93
2022/12/18 05:28:37;;;;;;;20.10;13.52;;;11.70;99.90;;;;;;4812018;29;20049;-91
2022/12/18 05:31:05;;;;;;;25.10;14.65;;;11.70;99.90;;;;;;4812051;29;20057;-93
2022/12/18 05:33:34;;;;;;;22.60;14.50;;;11.70;99.90;;;;;;4811815;29;20038;-91
2022/12/18 05:36:06;;;;;;;21.70;13.32;;;11.70;99.90;;;;;;4796907;29;20030;-91
2022/12/18 05:38:38;;;;;;;21.25;11.75;;;11.70;99.90;;;;;;4797042;29;20034;-92
2022/12/18 05:41:06;;;;;;;19.95;12.93;;;11.70;99.90;;;;;;4811791;29;20050;-92
2022/12/18 05:43:35;;;;;;;19.58;11.32;;;11.70;99.90;;;;;;4796783;29;20027;-94
2022/12/18 05:46:07;;;;;;;19.30;12.20;;;11.70;99.90;;;;;;4811887;29;20034;-91
2022/12/18 05:48:34;;;;;;;17.75;11.45;;;11.70;99.90;;;;;;4796708;29;20045;-92
2022/12/18 05:51:10;;;;;;;17.65;11.65;;;11.70;99.90;;;;;;4811685;29;20039;-92
2022/12/18 05:53:38;;;;;;;17.05;11.38;;;11.80;99.90;;;;;;4811556;29;20484;-92
2022/12/18 05:56:09;;;;;;;18.52;11.18;;;11.80;99.90;;;;;;4797005;29;20030;-92
2022/12/18 05:58:36;;;;;;;15.13;10.80;;;11.80;99.90;;;;;;4811290;29;20493;-91
2022/12/18 06:01:12;;;;;;;29.05;11.50;;;11.80;99.90;;;;;;4811462;29;20146;-93
2022/12/18 06:03:40;;;;;;;23.02;11.32;;;11.90;99.90;;;;;;4796356;29;20378;-92
2022/12/18 06:06:22;;;;;;;23.65;11.23;;;11.80;99.90;;;;;;4811351;29;20033;-92
2022/12/18 06:08:52;;;;;;;19.80;10.80;;;11.80;99.90;;;;;;4811285;29;20560;-93
2022/12/18 06:11:23;;;;;;;17.98;10.48;;;11.90;99.90;;;;;;4811345;29;20058;-93
2022/12/18 06:13:56;;;;;;;20.92;10.75;;;12.00;99.90;;;;;;4811347;29;20038;-94
2022/12/18 06:16:23;;;;;;;21.97;11.30;;;12.00;99.90;;;;;;4811352;29;20129;-92
2022/12/18 06:18:49;;;;;;;18.38;11.15;;;12.00;99.90;;;;;;4811300;29;20314;-91
2022/12/18 06:21:16;;;;;;;19.75;11.40;;;12.00;99.90;;;;;;4811514;29;20030;-92
2022/12/18 06:23:43;;;;;;;17.33;11.07;;;12.10;99.90;;;;;;4797581;29;20121;-92
2022/12/18 06:26:13;;;;;;;17.42;10.82;;;12.10;99.90;;;;;;4809666;29;20042;-91
2022/12/18 06:28:43;;;;;;;22.58;11.20;;;12.10;99.90;;;;;;4810556;29;20053;-91
2022/12/18 06:31:10;;;;;;;20.02;11.45;;;12.20;99.90;;;;;;4811185;29;20034;-92
2022/12/18 06:33:37;;;;;;;18.08;10.63;;;12.10;99.90;;;;;;4811563;29;20040;-92
2022/12/18 06:36:10;;;;;;;17.92;10.77;;;12.10;99.90;;;;;;4811139;29;20066;-94
2022/12/18 06:38:40;;;;;;;20.45;10.30;;;12.20;99.90;;;;;;4810844;29;20412;-91
2022/12/18 06:41:20;;;;;;;14.90;10.32;;;12.30;99.90;;;;;;4810850;29;20040;-93
2022/12/18 06:43:47;;;;;;;15.13;9.65;;;12.40;99.90;;;;;;4811352;29;20034;-92
2022/12/18 06:46:13;;;;;;;18.35;10.45;;;12.60;99.90;;;;;;4810765;29;20031;-92
2022/12/18 06:48:40;;;;;;;20.13;10.30;;;12.80;99.90;;;;;;4810646;29;20075;-93
2022/12/18 06:51:07;;;;;;;15.88;11.13;;;12.90;99.90;;;;;;4795808;29;20038;-92
2022/12/18 06:53:34;;;;;;;21.05;10.80;;;12.90;99.90;;;;;;4810851;29;20035;-91
2022/12/18 06:56:06;;;;;;;19.80;11.75;;;13.00;99.90;;;;;;4795982;29;20045;-91
2022/12/18 06:58:33;;;;;;;17.20;11.35;;;13.10;99.90;;;;;;4792033;29;20536;-93
2022/12/18 07:01:04;;;;;;;17.10;11.15;;;13.00;99.90;;;;;;4789543;29;20031;-91
2022/12/18 07:03:31;;;;;;;18.48;10.82;;;13.00;99.90;;;;;;4789804;29;20046;-91
2022/12/18 07:05:58;;;;;;;17.83;11.00;;;12.90;99.90;;;;;;4774540;30;20114;-92
2022/12/18 07:08:25;;;;;;;19.92;11.30;;;12.80;99.90;;;;;;4789369;30;20046;-90
2022/12/18 07:10:53;;;;;;;20.77;11.90;;;12.90;99.90;;;;;;4789666;30;20031;-93
2022/12/18 07:13:23;;;;;;;21.17;11.15;;;12.90;99.90;;;;;;4789505;29;20040;-93
2022/12/18 07:15:50;;;;;;;24.80;11.50;;;13.00;99.90;;;;;;4774436;30;20028;-92
2022/12/18 07:18:17;;;;;;;20.95;11.65;;;13.00;99.90;;;;;;4774365;30;20059;-92
2022/12/18 07:20:52;;;;;;;16.98;10.55;;;13.00;99.90;;;;;;4774354;30;20104;-92
2022/12/18 07:23:19;;;;;;;16.98;10.40;;;13.00;99.90;;;;;;4790254;29;20575;-93
2022/12/18 07:25:46;;;;;;;16.58;10.00;;;13.00;99.90;;;;;;4790153;29;20126;-94
2022/12/18 07:28:16;;;;;;;20.33;10.98;;;13.10;99.90;;;;;;4789768;29;20039;-94
2022/12/18 07:30:45;;;;;;;13.93;9.48;;;13.10;99.90;;;;;;4789327;29;20035;-93
2022/12/18 07:33:12;;;;;;;20.17;10.20;;;13.20;99.90;;;;;;4789087;29;20122;-93
2022/12/18 07:35:39;;;;;;;20.70;10.88;;;13.20;99.90;;;;;;4775279;30;20080;-92
2022/12/18 07:38:09;;;;;;;20.10;10.82;;;13.30;99.90;;;;;;4788678;29;20125;-93
2022/12/18 07:40:38;;;;;;;31.23;10.55;;;13.30;99.90;;;;;;4773823;30;20042;-92
2022/12/18 07:43:05;;;;;;;21.80;9.98;;;13.40;99.90;;;;;;4774119;30;20055;-94
2022/12/18 07:45:38;;;;;;;19.67;10.85;;;13.40;99.90;;;;;;4774401;30;20047;-95
2022/12/18 07:48:05;;;;;;;22.15;11.20;;;13.40;99.90;;;;;;4790161;30;20044;-91
2022/12/18 08:07:52;;;;;;;24.40;10.05;;;14.00;99.90;;;;;;4826608;29;20142;-90
2022/12/18 08:10:25;;;;;;;21.48;9.65;;;14.10;99.90;;;;;;4794310;29;20026;-92
2022/12/18 08:12:52;;;;;;;21.35;10.98;;;14.10;99.90;;;;;;4809354;29;20454;-90
2022/12/18 08:15:19;;;;;;;21.00;10.30;;;14.10;99.90;;;;;;4794614;29;20026;-89
2022/12/18 08:17:45;;;;;;;24.58;11.48;;;14.10;99.90;;;;;;4794298;29;20034;-92
2022/12/18 08:20:14;;;;;;;16.13;9.65;;;14.10;99.90;;;;;;4794301;29;20034;-91
2022/12/18 08:22:50;;;;;;;23.85;10.70;;;14.10;99.90;;;;;;4794335;29;20030;-91
2022/12/18 08:25:23;;;;;;;24.20;10.02;;;14.20;99.90;;;;;;4794168;29;20046;-92
2022/12/18 08:27:50;;;;;;;22.48;10.13;;;14.30;99.90;;;;;;4793947;29;20060;-90
2022/12/18 08:30:20;;;;;;;19.90;9.45;;;14.60;99.90;;;;;;4794114;29;20026;-90
2022/12/18 08:32:56;;;;;;;21.52;9.77;;;14.80;99.90;;;;;;4809000;29;20042;-91
2022/12/18 08:35:22;;;;;;;21.00;10.30;;;15.10;99.90;;;;;;4809064;29;20122;-91
2022/12/18 08:37:49;;;;;;;22.02;10.65;;;15.20;99.90;;;;;;4793954;29;20034;-90
2022/12/18 08:40:16;;;;;;;28.20;12.40;;;15.20;99.90;;;;;;4794238;29;20030;-90
2022/12/18 08:45:44;;;;;;;26.83;11.82;;;15.10;99.90;;;;;;4824329;29;20041;-90
2022/12/18 08:48:16;;;;;;;21.52;11.35;;;14.90;99.90;;;;;;4808905;29;20106;-89
2022/12/18 08:50:59;;;;;;;23.08;11.77;;;14.80;99.90;;;;;;4795923;29;20544;-89
2022/12/18 08:53:29;;;;;;;21.98;10.55;;;14.80;99.90;;;;;;4812665;29;20042;-90
2022/12/18 08:55:57;;;;;;;22.23;10.35;;;14.80;99.90;;;;;;4797675;29;20046;-90
2022/12/18 08:58:40;;;;;;;19.77;9.27;;;14.90;99.90;;;;;;4812957;29;20054;-90
2022/12/18 09:01:12;;;;;;;19.08;9.30;;;15.00;99.90;;;;;;4812658;29;20041;-90
2022/12/18 09:03:39;;;;;;;15.25;8.57;;;15.10;99.90;;;;;;4812861;29;20039;-90
2022/12/18 09:06:06;;;;;;;21.00;9.55;;;15.10;99.90;;;;;;4794150;29;20057;-90
2022/12/18 09:08:36;;;;;;;19.00;8.43;;;15.10;99.90;;;;;;4794501;29;20046;-92
2022/12/18 09:11:19;;;;;;;18.33;7.38;;;15.10;99.90;;;;;;4794511;29;20512;-90
2022/12/18 09:13:55;;;;;;;22.50;7.72;;;15.10;99.90;;;;;;4794214;29;20042;-91
2022/12/18 09:16:24;;;;;;;26.55;7.35;;;15.10;99.90;;;;;;4794689;29;20031;-91
2022/12/18 09:18:50;;;;;;;38.45;7.90;;;15.20;99.90;;;;;;4794480;29;20027;-90
2022/12/18 09:21:23;;;;;;;20.90;8.00;;;15.30;99.90;;;;;;4794080;29;20035;-91
2022/12/18 09:23:51;;;;;;;14.85;7.28;;;15.50;99.90;;;;;;4794239;29;20070;-89
2022/12/18 09:26:25;;;;;;;20.55;7.15;;;15.70;99.90;;;;;;4794754;29;20392;-91
2022/12/18 09:29:02;;;;;;;;;;;15.70;99.90;;;;;;4794513;29;20120;-89
2022/12/18 09:31:29;;;;;;;14.38;6.70;;;15.80;99.90;;;;;;4809017;29;19913;-90
2022/12/18 09:33:56;;;;;;;13.05;6.63;;;15.90;99.90;;;;;;4793919;29;20041;-91
2022/12/18 09:36:23;;;;;;;12.98;6.50;;;15.80;99.90;;;;;;4794117;29;20034;-91
2022/12/18 09:38:50;;;;;;;11.13;6.20;;;15.80;99.90;;;;;;4794025;29;20550;-91
2022/12/18 09:41:44;;;;;;;14.05;6.00;;;15.70;99.90;;;;;;4796574;29;20038;-90
2022/12/18 09:44:32;;;;;;;11.18;6.10;;;15.70;99.90;;;;;;4795869;29;20082;-90
2022/12/18 09:47:20;;;;;;;16.00;5.85;;;15.70;99.90;;;;;;4793720;29;20043;-90
2022/12/18 09:49:52;;;;;;;17.00;6.47;;;15.70;99.90;;;;;;4793804;29;20530;-91
2022/12/18 09:52:33;;;;;;;11.48;5.78;;;15.80;99.90;;;;;;4793900;29;20035;-91
2022/12/18 09:55:24;;;;;;;14.45;6.18;;;15.80;99.90;;;;;;4795651;29;20421;-90
2022/12/18 09:58:05;;;;;;;14.40;6.75;;;15.90;99.90;;;;;;4793688;29;20031;-90
2022/12/18 10:00:31;;;;;;;10.75;6.32;;;16.00;99.90;;;;;;4793660;29;20027;-90
2022/12/18 10:03:11;;;;;;;12.32;7.22;;;16.10;99.90;;;;;;4793614;29;20034;-91
2022/12/18 10:05:59;;;;;;;9.38;6.75;;;16.20;99.90;;;;;;4794689;29;20027;-92
2022/12/18 10:08:48;;;;;;;11.75;6.70;;;16.20;99.90;;;;;;4826324;29;20046;-91
2022/12/18 10:11:33;;;;;;;14.63;7.00;;;16.30;99.90;;;;;;4796681;29;20508;-91
2022/12/18 10:14:19;;;;;;;10.05;6.60;;;16.30;99.90;;;;;;4811357;29;20034;-90
2022/12/18 10:16:58;;;;;;;11.02;5.95;;;16.40;99.90;;;;;;4826374;29;20409;-91
2022/12/18 10:19:49;;;;;;;13.80;7.03;;;16.40;99.90;;;;;;4826275;29;20449;-92
2022/12/18 10:22:40;;;;;;;14.88;6.30;;;16.40;99.90;;;;;;4811279;29;20039;-91
2022/12/18 10:25:20;;;;;;;15.98;6.95;;;16.50;99.90;;;;;;4796154;29;20042;-92
2022/12/18 10:27:48;;;;;;;10.70;6.53;;;16.50;99.90;;;;;;4811054;29;20053;-91
2022/12/18 10:30:17;;;;;;;8.27;6.00;;;16.50;99.90;;;;;;4796169;29;20035;-91
2022/12/18 10:32:43;;;;;;;7.90;6.95;;;16.40;99.90;;;;;;4811260;29;20035;-90
2022/12/18 10:35:36;;;;;;;8.30;6.68;;;16.20;99.90;;;;;;4810890;29;20037;-91
2022/12/18 10:38:12;;;;;;;16.50;6.65;;;16.20;99.90;;;;;;4808208;29;20046;-93
2022/12/18 10:47:28;;;;;;;;;;;;;;;;;;;;;
2022/12/18 11:09:31;;;;;;;15.80;9.07;;;16.70;99.90;;;;;;5209558;23;20390;-93
2022/12/18 11:24:53;;;;;;;;;;;;;;;;;;;;;
2022/12/18 11:27:50;;;;;;;9.30;8.23;;;16.70;99.90;;;;;;4800020;30;20063;-93
2022/12/18 11:38:08;;;;;;;10.60;9.48;;;17.00;99.90;;;;;;5021859;23;20050;-95
2022/12/18 14:45:38;;;;;;;8.73;6.57;;;15.10;99.90;;;;;;5532207;24;20061;-93
2022/12/18 14:48:19;;;;;;;8.82;6.35;;;15.00;99.90;;;;;;4832461;29;20049;-94
2022/12/18 14:50:56;;;;;;;9.35;6.75;;;15.00;99.90;;;;;;4847614;29;20029;-93
2022/12/18 14:53:34;;;;;;;14.98;8.10;;;14.90;99.90;;;;;;4847497;29;20117;-95
2022/12/18 14:56:01;;;;;;;11.68;6.85;;;14.90;99.90;;;;;;4834077;29;20053;-94
2022/12/18 14:58:28;;;;;;;16.25;8.70;;;14.90;99.90;;;;;;4833922;29;20368;-95
2022/12/18 15:00:54;;;;;;;15.98;9.02;;;14.90;99.90;;;;;;4832839;29;20033;-96
2022/12/18 15:03:21;;;;;;;15.70;8.07;;;14.90;99.90;;;;;;4833705;29;20030;-94
2022/12/18 15:05:48;;;;;;;13.32;7.85;;;14.90;99.90;;;;;;4833819;29;20026;-92
2022/12/18 15:08:35;;;;;;;12.23;7.70;;;14.80;99.90;;;;;;4832971;29;20120;-91
2022/12/18 15:11:02;;;;;;;13.90;7.63;;;14.80;99.90;;;;;;4832652;29;20037;-94
2022/12/18 15:13:28;;;;;;;12.77;7.28;;;14.70;99.90;;;;;;4835726;29;20045;-92
2022/12/18 15:16:03;;;;;;;12.82;6.63;;;14.70;99.90;;;;;;4834542;29;20034;-92
2022/12/18 15:18:41;;;;;;;13.18;6.95;;;14.70;99.90;;;;;;4833740;29;20061;-91
2022/12/18 15:21:10;;;;;;;16.65;9.15;;;14.70;99.90;;;;;;4833584;29;20038;-93
2022/12/18 15:23:55;;;;;;;10.20;8.02;;;14.60;99.90;;;;;;4833195;29;20062;-92
2022/12/18 15:26:38;;;;;;;13.45;7.65;;;14.60;99.90;;;;;;4855261;29;20558;-93
2022/12/18 15:29:04;;;;;;;19.35;8.50;;;14.60;99.90;;;;;;4831605;29;20063;-93
2022/12/18 15:31:35;;;;;;;13.73;7.90;;;14.50;99.90;;;;;;4832226;29;20025;-93
2022/12/18 15:34:19;;;;;;;14.65;8.38;;;14.50;99.90;;;;;;4833109;29;20040;-93
2022/12/18 15:36:45;;;;;;;15.00;7.60;;;14.40;99.90;;;;;;4834067;29;20034;-91
2022/12/18 15:39:13;;;;;;;13.07;7.00;;;14.40;99.90;;;;;;4834059;29;20033;-91
2022/12/18 15:41:40;;;;;;;16.42;7.45;;;14.30;99.90;;;;;;4831870;29;20037;-91
2022/12/18 15:44:36;;;;;;;14.43;8.10;;;14.30;99.90;;;;;;4831481;29;20038;-92
2022/12/18 15:47:02;;;;;;;17.42;8.65;;;14.30;99.90;;;;;;4794489;29;20130;-93
2022/12/18 15:49:31;;;;;;;12.43;8.00;;;14.20;99.90;;;;;;4794509;29;20046;-91
2022/12/18 15:52:02;;;;;;;14.80;8.43;;;14.20;99.90;;;;;;4794172;29;20524;-92
2022/12/18 15:57:24;;;;;;;12.20;7.82;;;14.20;99.90;;;;;;4809037;29;20053;-92
2022/12/18 15:59:52;;;;;;;16.48;8.30;;;14.20;99.90;;;;;;4793607;29;20167;-93
2022/12/18 16:02:20;;;;;;;11.75;7.78;;;14.10;99.90;;;;;;4794603;29;20041;-90
2022/12/18 16:04:46;;;;;;;12.85;7.90;;;14.10;99.90;;;;;;4797274;29;20039;-91
2022/12/18 16:07:13;;;;;;;12.43;8.48;;;14.10;99.90;;;;;;4794172;29;20045;-90
2022/12/18 16:09:39;;;;;;;13.68;7.50;;;14.10;99.90;;;;;;4793702;29;20137;-90
2022/12/18 16:12:11;;;;;;;12.50;7.25;;;14.00;99.90;;;;;;4793727;29;20087;-92
2022/12/18 16:14:37;;;;;;;18.85;7.75;;;14.00;99.90;;;;;;4793830;29;20068;-91
2022/12/18 16:17:09;;;;;;;17.95;7.15;;;14.00;99.90;;;;;;4790615;29;20107;-91
2022/12/18 16:19:35;;;;;;;13.40;7.68;;;14.00;99.90;;;;;;4790620;29;20165;-90
2022/12/18 16:22:01;;;;;;;12.60;8.23;;;13.90;99.90;;;;;;4790549;29;20125;-93
2022/12/18 16:24:33;;;;;;;11.63;6.88;;;13.90;99.90;;;;;;4808112;29;20042;-90
2022/12/18 16:27:00;;;;;;;15.48;7.63;;;13.90;99.90;;;;;;4793877;29;20026;-89
2022/12/18 16:29:28;;;;;;;13.55;8.40;;;13.90;99.90;;;;;;4793812;29;20046;-91
2022/12/18 16:31:59;;;;;;;15.23;7.70;;;13.90;99.90;;;;;;4793531;29;20061;-93
2022/12/18 16:34:34;;;;;;;10.70;7.43;;;13.90;99.90;;;;;;4793387;29;20045;-92
2022/12/18 16:37:04;;;;;;;14.25;7.60;;;13.90;99.90;;;;;;4793395;29;20039;-91
2022/12/18 16:39:31;;;;;;;19.00;8.10;;;13.90;99.90;;;;;;4793547;29;20042;-90
2022/12/18 16:41:58;;;;;;;12.80;8.48;;;13.90;99.90;;;;;;4793864;29;20455;-91
2022/12/18 16:44:24;;;;;;;13.35;8.70;;;13.80;99.90;;;;;;4793566;29;20034;-93
2022/12/18 16:46:50;;;;;;;11.68;7.68;;;13.90;99.90;;;;;;4793024;29;20046;-92
2022/12/18 16:49:18;;;;;;;16.45;8.00;;;13.80;99.90;;;;;;4794337;29;20042;-93
2022/12/18 16:51:46;;;;;;;19.10;8.32;;;13.80;99.90;;;;;;4793552;29;20553;-92
2022/12/18 16:54:13;;;;;;;12.88;7.72;;;13.80;99.90;;;;;;4805353;29;20102;-92
2022/12/18 16:56:39;;;;;;;15.43;7.97;;;13.70;99.90;;;;;;4827188;29;20037;-93
2022/12/18 16:59:05;;;;;;;13.95;8.75;;;13.70;99.90;;;;;;4827308;29;20086;-93
2022/12/18 17:01:32;;;;;;;17.98;9.30;;;13.70;99.90;;;;;;4827621;29;20034;-93
2022/12/18 17:04:05;;;;;;;15.25;7.80;;;13.60;99.90;;;;;;4828041;29;20073;-92
2022/12/18 17:06:34;;;;;;;14.60;8.30;;;13.60;99.90;;;;;;4842841;29;20037;-93
2022/12/18 17:09:04;;;;;;;11.20;8.73;;;13.60;99.90;;;;;;4827439;29;20042;-92
2022/12/18 17:11:33;;;;;;;21.30;9.68;;;13.60;99.90;;;;;;4827269;29;20176;-93
2022/12/18 17:14:05;;;;;;;17.65;8.57;;;13.60;99.90;;;;;;4830534;29;20030;-93
2022/12/18 17:16:32;;;;;;;12.80;7.38;;;13.50;99.90;;;;;;4815305;29;20030;-92
2022/12/18 17:18:58;;;;;;;11.30;7.75;;;13.50;99.90;;;;;;4830873;29;20040;-93
2022/12/18 17:21:24;;;;;;;18.63;7.63;;;13.50;99.90;;;;;;4832098;29;20038;-92
2022/12/18 17:23:54;;;;;;;19.90;7.50;;;13.50;99.90;;;;;;4831120;29;20052;-93
2022/12/18 17:26:20;;;;;;;16.02;7.97;;;13.50;99.90;;;;;;4830756;29;20061;-93
2022/12/18 17:28:50;;;;;;;12.55;8.40;;;13.50;99.90;;;;;;4830261;29;20046;-92
2022/12/18 17:31:20;;;;;;;21.30;10.50;;;13.50;99.90;;;;;;4830483;29;20042;-93
2022/12/18 17:33:47;;;;;;;23.33;12.82;;;13.50;99.90;;;;;;4830286;29;20042;-93
2022/12/18 17:36:14;;;;;;;40.80;24.65;;;13.50;99.90;;;;;;4830066;29;20125;-94
2022/12/18 17:38:40;;;;;;;33.53;20.05;;;13.40;99.90;;;;;;4830173;29;20034;-93
2022/12/18 17:41:11;;;;;;;42.90;23.90;;;13.40;99.90;;;;;;4830475;29;20041;-93
2022/12/18 17:43:47;;;;;;;36.63;23.50;;;13.40;99.90;;;;;;4830011;29;20090;-92
2022/12/18 17:46:14;;;;;;;68.38;34.15;;;13.40;99.90;;;;;;4829253;29;20045;-92
2022/12/18 17:48:40;;;;;;;33.03;19.50;;;13.40;99.90;;;;;;4829715;29;20045;-92
2022/12/18 17:51:08;;;;;;;32.50;19.23;;;13.40;99.90;;;;;;4829898;29;20484;-93
2022/12/18 17:53:35;;;;;;;27.33;15.82;;;13.40;99.90;;;;;;4830198;29;20034;-91
2022/12/18 17:56:04;;;;;;;25.10;13.40;;;13.40;99.90;;;;;;4830232;29;20034;-92
2022/12/18 17:58:36;;;;;;;24.85;12.93;;;13.40;99.90;;;;;;4829973;29;20121;-92
2022/12/18 18:01:03;;;;;;;20.63;11.27;;;13.40;99.90;;;;;;4829684;29;20029;-92
2022/12/18 18:03:32;;;;;;;17.05;10.27;;;13.40;99.90;;;;;;4829642;29;20030;-93
2022/12/18 18:06:00;;;;;;;12.57;9.18;;;13.30;99.90;;;;;;4829476;29;20040;-92
2022/12/18 18:08:27;;;;;;;15.30;10.45;;;13.40;99.90;;;;;;4814303;29;20044;-94
2022/12/18 18:13:59;;;;;;;19.80;12.13;;;13.30;99.90;;;;;;4829187;29;20038;-93